Time;durP1;ratioP1;P1;durP2;ratioP2;P2;SDS_P1;SDS_P2;PMS_P1;PMS_P2;Temp;Humidity;BMP_temperature;BMP_pressure;BME280_temperature;BME280_humidity;BME280_pressure;Samples;Min_cycle;Max_cycle;Signal;HPM_P1;HPM_P2
2022/03/10 00:00:48;;;;;;;62.55;23.77;;;;;;;;;;5061393;28;20020;-61
2022/03/10 00:03:14;;;;;;;60.78;24.15;;;;;;;;;;5061944;28;20032;-61
2022/03/10 00:05:39;;;;;;;54.75;23.75;;;;;;;;;;5062986;28;20083;-61
2022/03/10 00:08:05;;;;;;;55.80;24.58;;;;;;;;;;5060419;28;20034;-62
2022/03/10 00:10:30;;;;;;;55.88;23.80;;;;;;;;;;5059458;28;20033;-61
2022/03/10 00:12:56;;;;;;;53.17;22.92;;;;;;;;;;5063907;28;20055;-61
2022/03/10 00:15:23;;;;;;;58.35;23.83;;;;;;;;;;5059280;28;20056;-61
2022/03/10 00:17:49;;;;;;;52.08;22.90;;;;;;;;;;5057971;28;20404;-61
2022/03/10 00:20:15;;;;;;;55.78;22.50;;;;;;;;;;5061058;28;20027;-60
2022/03/10 00:22:52;;;;;;;51.15;21.65;;;;;;;;;;5062497;28;20071;-61
2022/03/10 00:25:18;;;;;;;57.83;23.83;;;;;;;;;;5055142;28;20020;-62
2022/03/10 00:27:45;;;;;;;56.13;25.08;;;;;;;;;;5056512;28;20150;-61
2022/03/10 00:30:11;;;;;;;61.10;27.63;;;;;;;;;;5050667;28;20117;-61
2022/03/10 00:32:48;;;;;;;63.38;26.48;;;;;;;;;;5053899;28;20119;-62
2022/03/10 00:35:31;;;;;;;57.38;24.48;;;;;;;;;;5054938;28;20020;-61
2022/03/10 00:37:58;;;;;;;57.17;24.23;;;;;;;;;;5064175;28;20044;-62
2022/03/10 00:40:23;;;;;;;55.33;24.73;;;;;;;;;;5067600;28;20031;-60
2022/03/10 00:42:49;;;;;;;48.35;20.95;;;;;;;;;;5060126;28;20131;-61
2022/03/10 00:45:15;;;;;;;47.53;18.73;;;;;;;;;;5064205;28;20460;-61
2022/03/10 00:47:41;;;;;;;40.63;16.67;;;;;;;;;;5060844;28;20102;-60
2022/03/10 00:50:08;;;;;;;35.47;14.30;;;;;;;;;;5057923;28;20029;-61
2022/03/10 00:52:40;;;;;;;34.28;14.13;;;;;;;;;;5057279;28;20083;-60
2022/03/10 00:55:06;;;;;;;31.55;13.95;;;;;;;;;;5060201;28;20123;-61
2022/03/10 00:57:32;;;;;;;31.80;13.05;;;;;;;;;;5060783;28;20348;-61
2022/03/10 00:59:57;;;;;;;34.35;13.57;;;;;;;;;;5057660;28;20050;-60
2022/03/10 01:02:23;;;;;;;33.13;13.35;;;;;;;;;;5059784;28;20107;-60
2022/03/10 01:04:48;;;;;;;32.40;13.80;;;;;;;;;;5061812;28;20126;-60
2022/03/10 01:07:14;;;;;;;36.08;13.93;;;;;;;;;;5057528;28;20086;-61
2022/03/10 01:09:39;;;;;;;38.40;13.88;;;;;;;;;;5059128;28;20033;-61
2022/03/10 01:12:05;;;;;;;34.05;14.25;;;;;;;;;;5058893;28;20041;-61
2022/03/10 01:14:30;;;;;;;34.25;12.80;;;;;;;;;;5055248;28;20025;-60
2022/03/10 01:16:56;;;;;;;31.02;12.98;;;;;;;;;;5056267;28;20074;-61
2022/03/10 01:19:23;;;;;;;29.38;12.75;;;;;;;;;;5059265;28;20021;-62
2022/03/10 01:21:48;;;;;;;36.25;13.85;;;;;;;;;;5063703;28;20028;-61
2022/03/10 01:24:14;;;;;;;37.10;14.50;;;;;;;;;;5062926;28;20035;-60
2022/03/10 01:26:39;;;;;;;49.95;17.88;;;;;;;;;;5059957;28;20029;-60
2022/03/10 01:29:05;;;;;;;38.45;16.13;;;;;;;;;;5063773;28;20134;-60
2022/03/10 01:31:31;;;;;;;33.67;14.38;;;;;;;;;;5057789;28;20052;-60
2022/03/10 01:33:57;;;;;;;34.33;14.95;;;;;;;;;;5063860;28;20056;-61
2022/03/10 01:36:23;;;;;;;30.75;14.15;;;;;;;;;;5056011;28;20028;-61
2022/03/10 01:38:49;;;;;;;28.92;12.30;;;;;;;;;;5057357;28;20021;-60
2022/03/10 01:41:14;;;;;;;29.10;12.48;;;;;;;;;;5062610;28;20067;-62
2022/03/10 01:43:56;;;;;;;21.45;10.02;;;;;;;;;;5056141;28;20025;-61
2022/03/10 01:46:22;;;;;;;18.73;8.93;;;;;;;;;;5058464;28;20037;-61
2022/03/10 01:48:47;;;;;;;20.88;8.30;;;;;;;;;;5061807;28;20425;-61
2022/03/10 01:51:13;;;;;;;16.13;7.47;;;;;;;;;;5065366;28;20104;-60
2022/03/10 01:53:38;;;;;;;17.17;8.05;;;;;;;;;;5060311;28;20071;-61
2022/03/10 01:56:04;;;;;;;18.60;8.38;;;;;;;;;;5056837;28;20025;-60
2022/03/10 01:58:29;;;;;;;20.88;8.88;;;;;;;;;;5055109;28;20083;-60
2022/03/10 02:00:55;;;;;;;16.05;7.82;;;;;;;;;;5058938;28;20039;-63
2022/03/10 02:03:21;;;;;;;15.63;7.90;;;;;;;;;;5060687;28;20020;-60
2022/03/10 02:05:47;;;;;;;15.48;8.55;;;;;;;;;;5057826;28;20070;-59
2022/03/10 02:10:56;;;;;;;14.52;7.68;;;;;;;;;;5059140;28;20059;-60
2022/03/10 02:13:22;;;;;;;19.00;7.47;;;;;;;;;;5056657;28;20417;-60
2022/03/10 02:18:32;;;;;;;16.50;7.80;;;;;;;;;;5053572;28;20066;-61
2022/03/10 02:20:57;;;;;;;15.98;7.70;;;;;;;;;;5051338;28;20021;-61
2022/03/10 02:23:23;;;;;;;18.67;7.85;;;;;;;;;;5061630;28;20032;-62
2022/03/10 02:25:48;;;;;;;30.88;12.70;;;;;;;;;;5060865;28;20035;-61
2022/03/10 02:28:13;;;;;;;24.63;10.10;;;;;;;;;;5049940;28;20086;-61
2022/03/10 02:30:39;;;;;;;21.33;10.10;;;;;;;;;;5054983;28;20156;-60
2022/03/10 02:33:05;;;;;;;24.63;10.45;;;;;;;;;;5052813;28;20115;-60
2022/03/10 02:35:31;;;;;;;37.50;13.27;;;;;;;;;;5053738;28;20043;-61
2022/03/10 02:37:56;;;;;;;39.50;14.13;;;;;;;;;;5060636;28;20028;-62
2022/03/10 02:40:23;;;;;;;41.58;15.43;;;;;;;;;;5057272;28;20042;-61
2022/03/10 02:42:48;;;;;;;27.55;12.23;;;;;;;;;;5060225;28;20021;-60
2022/03/10 02:45:14;;;;;;;31.17;11.85;;;;;;;;;;5060610;28;20533;-61
2022/03/10 02:47:39;;;;;;;27.13;11.65;;;;;;;;;;5056561;28;20115;-60
2022/03/10 02:50:06;;;;;;;30.48;11.85;;;;;;;;;;5058640;28;20040;-61
2022/03/10 02:52:36;;;;;;;31.85;14.05;;;;;;;;;;5053497;28;20028;-61
2022/03/10 02:55:03;;;;;;;;;;;;;;;;;;5060370;28;20049;-60
2022/03/10 02:57:30;;;;;;;29.00;10.55;;;;;;;;;;5060297;28;19999;-60
2022/03/10 02:59:56;;;;;;;27.80;11.48;;;;;;;;;;5058001;28;20029;-60
2022/03/10 03:02:22;;;;;;;29.67;11.32;;;;;;;;;;5054135;28;20120;-60
2022/03/10 03:04:47;;;;;;;31.13;11.63;;;;;;;;;;5061025;28;20242;-60
2022/03/10 03:07:13;;;;;;;26.63;11.63;;;;;;;;;;5058679;28;20021;-61
2022/03/10 03:09:38;;;;;;;26.65;11.18;;;;;;;;;;5059280;28;20036;-60
2022/03/10 03:12:04;;;;;;;24.35;10.23;;;;;;;;;;5060771;28;20089;-61
2022/03/10 03:14:29;;;;;;;27.67;10.77;;;;;;;;;;5062366;28;20028;-60
2022/03/10 03:16:58;;;;;;;26.45;11.63;;;;;;;;;;5061298;28;20033;-60
2022/03/10 03:19:24;;;;;;;23.52;10.80;;;;;;;;;;5053176;28;20575;-61
2022/03/10 03:21:50;;;;;;;28.73;11.05;;;;;;;;;;5059516;28;20031;-60
2022/03/10 03:24:17;;;;;;;24.80;10.32;;;;;;;;;;5058560;28;20028;-61
2022/03/10 03:26:42;;;;;;;24.25;9.63;;;;;;;;;;5060532;28;20124;-61
2022/03/10 03:29:07;;;;;;;20.75;7.88;;;;;;;;;;5057486;28;20107;-60
2022/03/10 03:31:33;;;;;;;18.65;8.20;;;;;;;;;;5061942;28;20060;-60
2022/03/10 03:33:58;;;;;;;17.70;7.68;;;;;;;;;;5065117;28;20036;-60
2022/03/10 03:36:24;;;;;;;17.33;7.75;;;;;;;;;;5061628;28;20033;-61
2022/03/10 03:38:49;;;;;;;20.48;8.70;;;;;;;;;;5054023;28;20036;-61
2022/03/10 03:41:14;;;;;;;16.40;7.80;;;;;;;;;;5058065;28;20475;-60
2022/03/10 03:43:40;;;;;;;16.50;7.60;;;;;;;;;;5058148;28;20161;-60
2022/03/10 03:46:05;;;;;;;16.35;7.40;;;;;;;;;;5059533;28;20028;-61
2022/03/10 03:48:31;;;;;;;16.38;7.88;;;;;;;;;;5058019;28;20488;-60
2022/03/10 03:50:56;;;;;;;15.82;6.45;;;;;;;;;;5060564;28;20226;-59
2022/03/10 03:53:21;;;;;;;14.40;6.93;;;;;;;;;;5065004;28;20111;-60
2022/03/10 03:55:47;;;;;;;16.17;7.15;;;;;;;;;;5060311;28;20029;-61
2022/03/10 03:58:12;;;;;;;13.32;6.57;;;;;;;;;;5062588;28;20437;-60
2022/03/10 04:00:38;;;;;;;13.82;7.13;;;;;;;;;;5062147;28;20025;-61
2022/03/10 04:03:08;;;;;;;15.15;7.40;;;;;;;;;;5060731;28;20372;-61
2022/03/10 04:05:34;;;;;;;15.23;6.90;;;;;;;;;;5058450;28;20021;-60
2022/03/10 04:07:59;;;;;;;13.32;6.53;;;;;;;;;;5063837;28;20078;-59
2022/03/10 04:10:25;;;;;;;9.77;5.97;;;;;;;;;;5054543;28;20472;-61
2022/03/10 04:12:50;;;;;;;13.73;6.15;;;;;;;;;;5057429;28;20112;-60
2022/03/10 04:15:16;;;;;;;10.77;5.15;;;;;;;;;;5062384;28;20111;-60
2022/03/10 04:17:42;;;;;;;13.50;6.00;;;;;;;;;;5060680;28;20029;-60
2022/03/10 04:20:13;;;;;;;11.18;5.22;;;;;;;;;;5061511;28;20079;-60
2022/03/10 04:22:39;;;;;;;13.02;6.18;;;;;;;;;;5058264;28;20101;-60
2022/03/10 04:25:06;;;;;;;10.88;5.78;;;;;;;;;;5058022;28;20498;-60
2022/03/10 04:27:32;;;;;;;12.93;5.90;;;;;;;;;;5056119;28;20021;-61
2022/03/10 04:29:57;;;;;;;10.75;4.95;;;;;;;;;;5051023;28;20029;-60
2022/03/10 04:32:23;;;;;;;10.50;5.50;;;;;;;;;;5053883;28;20126;-61
2022/03/10 04:34:49;;;;;;;12.52;5.88;;;;;;;;;;5064788;28;20488;-60
2022/03/10 04:37:14;;;;;;;10.43;5.28;;;;;;;;;;5058824;28;20421;-60
2022/03/10 04:39:40;;;;;;;10.35;5.43;;;;;;;;;;5052848;28;20511;-60
2022/03/10 04:42:05;;;;;;;10.55;5.57;;;;;;;;;;5060470;28;20503;-60
2022/03/10 04:44:30;;;;;;;9.77;5.50;;;;;;;;;;5065451;28;20044;-60
2022/03/10 04:46:56;;;;;;;10.02;5.30;;;;;;;;;;5061662;28;20055;-60
2022/03/10 04:49:21;;;;;;;12.10;6.22;;;;;;;;;;5059188;28;20031;-60
2022/03/10 04:51:47;;;;;;;12.65;5.50;;;;;;;;;;5054123;28;20025;-61
2022/03/10 04:54:12;;;;;;;12.70;5.47;;;;;;;;;;5059427;28;20587;-60
2022/03/10 04:56:38;;;;;;;11.80;5.13;;;;;;;;;;5057295;28;20491;-60
2022/03/10 04:59:03;;;;;;;11.48;5.03;;;;;;;;;;5059288;28;20033;-60
2022/03/10 05:01:29;;;;;;;10.93;5.03;;;;;;;;;;5059334;28;20025;-61
2022/03/10 05:03:55;;;;;;;9.43;5.35;;;;;;;;;;5060196;28;20021;-60
2022/03/10 05:06:22;;;;;;;9.85;5.22;;;;;;;;;;5060608;28;20021;-60
2022/03/10 05:08:47;;;;;;;10.48;4.93;;;;;;;;;;5054502;28;20043;-60
2022/03/10 05:11:13;;;;;;;8.73;4.63;;;;;;;;;;5057690;28;20025;-60
2022/03/10 05:13:38;;;;;;;8.15;4.65;;;;;;;;;;5054979;28;20032;-60
2022/03/10 05:16:04;;;;;;;10.00;5.20;;;;;;;;;;5061629;28;20052;-61
2022/03/10 05:18:30;;;;;;;8.77;4.60;;;;;;;;;;5051770;28;20040;-60
2022/03/10 05:20:55;;;;;;;9.50;5.40;;;;;;;;;;5062786;28;20029;-60
2022/03/10 05:23:20;;;;;;;12.15;4.97;;;;;;;;;;5059695;28;20487;-60
2022/03/10 05:25:46;;;;;;;11.05;5.22;;;;;;;;;;5052915;28;20033;-60
2022/03/10 05:28:14;;;;;;;15.95;6.13;;;;;;;;;;5049549;28;20090;-60
2022/03/10 05:30:40;;;;;;;14.13;5.65;;;;;;;;;;5051474;28;20033;-59
2022/03/10 05:33:07;;;;;;;14.18;6.07;;;;;;;;;;5059530;28;20042;-60
2022/03/10 05:35:32;;;;;;;13.40;5.80;;;;;;;;;;5054214;28;20044;-59
2022/03/10 05:37:59;;;;;;;8.35;4.85;;;;;;;;;;5060416;28;20032;-61
2022/03/10 05:40:24;;;;;;;11.38;5.50;;;;;;;;;;5056388;28;20119;-60
2022/03/10 05:42:53;;;;;;;14.15;6.68;;;;;;;;;;5060790;28;20181;-61
2022/03/10 05:45:21;;;;;;;17.83;6.22;;;;;;;;;;5061529;28;20024;-61
2022/03/10 05:47:52;;;;;;;12.35;5.28;;;;;;;;;;5063409;28;20460;-61
2022/03/10 05:50:18;;;;;;;12.88;5.93;;;;;;;;;;5054316;28;20170;-61
2022/03/10 05:52:45;;;;;;;12.25;5.32;;;;;;;;;;5057627;28;20199;-60
2022/03/10 05:55:12;;;;;;;8.73;4.72;;;;;;;;;;5060391;28;20683;-60
2022/03/10 05:57:38;;;;;;;12.27;6.28;;;;;;;;;;5058841;28;20111;-60
2022/03/10 06:00:04;;;;;;;12.25;6.47;;;;;;;;;;5053621;28;20116;-60
2022/03/10 06:02:29;;;;;;;12.90;6.07;;;;;;;;;;5056954;28;20369;-60
2022/03/10 06:05:00;;;;;;;14.25;6.13;;;;;;;;;;5060178;28;20143;-60
2022/03/10 06:07:26;;;;;;;15.50;6.32;;;;;;;;;;5056609;28;20021;-60
2022/03/10 06:09:51;;;;;;;12.43;5.47;;;;;;;;;;5059200;28;20396;-60
2022/03/10 06:12:25;;;;;;;13.57;6.65;;;;;;;;;;5062628;28;20027;-60
2022/03/10 06:14:58;;;;;;;13.93;6.95;;;;;;;;;;5057264;28;20043;-59
2022/03/10 06:17:24;;;;;;;15.98;7.00;;;;;;;;;;5058404;28;20416;-61
2022/03/10 06:19:50;;;;;;;13.75;7.22;;;;;;;;;;5059561;28;20032;-62
2022/03/10 06:22:19;;;;;;;14.35;7.22;;;;;;;;;;5064311;28;20021;-61
2022/03/10 06:24:46;;;;;;;15.80;6.88;;;;;;;;;;5055681;28;20032;-61
2022/03/10 06:27:15;;;;;;;15.70;7.28;;;;;;;;;;5061594;28;20033;-60
2022/03/10 06:29:41;;;;;;;15.88;7.38;;;;;;;;;;5059062;28;20108;-61
2022/03/10 06:32:07;;;;;;;17.77;7.93;;;;;;;;;;5062287;28;20426;-62
2022/03/10 06:34:33;;;;;;;18.27;7.78;;;;;;;;;;5057971;28;20024;-60
2022/03/10 06:36:59;;;;;;;22.20;9.00;;;;;;;;;;5064415;28;20046;-62
2022/03/10 06:39:25;;;;;;;18.52;8.45;;;;;;;;;;5058689;28;20020;-60
2022/03/10 06:41:50;;;;;;;18.98;8.73;;;;;;;;;;5055611;28;20017;-61
2022/03/10 06:44:16;;;;;;;16.45;7.82;;;;;;;;;;5067415;28;20074;-60
2022/03/10 06:46:41;;;;;;;21.20;8.52;;;;;;;;;;5056059;28;20392;-61
2022/03/10 06:49:07;;;;;;;19.65;9.38;;;;;;;;;;5062669;28;20384;-61
2022/03/10 06:51:32;;;;;;;22.85;10.07;;;;;;;;;;5059095;28;20025;-61
2022/03/10 06:53:58;;;;;;;24.98;10.82;;;;;;;;;;5062946;28;20506;-60
2022/03/10 06:56:24;;;;;;;21.92;10.30;;;;;;;;;;5055391;28;20027;-61
2022/03/10 06:58:49;;;;;;;29.98;11.85;;;;;;;;;;5053103;28;20033;-60
2022/03/10 07:01:15;;;;;;;22.42;11.85;;;;;;;;;;5056947;28;20025;-61
2022/03/10 07:03:40;;;;;;;27.02;11.20;;;;;;;;;;5062387;28;20035;-61
2022/03/10 07:06:06;;;;;;;46.45;17.27;;;;;;;;;;5061804;28;20029;-60
2022/03/10 07:08:32;;;;;;;34.05;14.13;;;;;;;;;;5058266;28;20473;-60
2022/03/10 07:10:57;;;;;;;31.33;12.95;;;;;;;;;;5062548;28;20035;-60
2022/03/10 07:13:22;;;;;;;30.77;13.32;;;;;;;;;;5063094;28;20028;-60
2022/03/10 07:15:48;;;;;;;30.08;12.07;;;;;;;;;;5065334;28;20024;-60
2022/03/10 07:18:13;;;;;;;26.73;12.68;;;;;;;;;;5057733;28;20024;-61
2022/03/10 07:20:39;;;;;;;24.60;11.85;;;;;;;;;;5048252;28;21604;-60
2022/03/10 07:23:04;;;;;;;32.65;13.07;;;;;;;;;;5060551;28;20028;-60
2022/03/10 07:25:30;;;;;;;31.60;14.50;;;;;;;;;;5060034;28;20066;-59
2022/03/10 07:27:56;;;;;;;34.50;14.30;;;;;;;;;;5054198;28;20028;-60
2022/03/10 07:30:21;;;;;;;35.10;16.13;;;;;;;;;;5061040;28;20031;-60
2022/03/10 07:32:47;;;;;;;38.40;18.20;;;;;;;;;;5055700;28;20053;-60
2022/03/10 07:35:12;;;;;;;38.42;17.42;;;;;;;;;;5052581;28;20029;-60
2022/03/10 07:37:38;;;;;;;38.53;16.90;;;;;;;;;;5056080;28;20032;-59
2022/03/10 07:40:04;;;;;;;40.15;17.10;;;;;;;;;;5055833;28;20283;-61
2022/03/10 07:42:30;;;;;;;37.90;17.40;;;;;;;;;;5058844;28;20052;-61
2022/03/10 07:44:55;;;;;;;40.33;16.95;;;;;;;;;;5062516;28;20113;-60
2022/03/10 07:47:21;;;;;;;39.00;18.00;;;;;;;;;;5058503;28;20036;-60
2022/03/10 07:49:47;;;;;;;60.88;19.65;;;;;;;;;;5059708;28;20055;-60
2022/03/10 07:52:12;;;;;;;47.20;21.40;;;;;;;;;;5058459;28;20490;-61
2022/03/10 07:54:38;;;;;;;50.95;21.55;;;;;;;;;;5065428;28;20063;-60
2022/03/10 07:57:04;;;;;;;45.80;19.60;;;;;;;;;;5069973;28;20066;-60
2022/03/10 07:59:29;;;;;;;49.90;19.63;;;;;;;;;;5064742;28;20028;-60
2022/03/10 08:01:55;;;;;;;52.10;19.88;;;;;;;;;;5059451;28;20111;-61
2022/03/10 08:04:21;;;;;;;42.78;18.17;;;;;;;;;;5057282;28;20041;-61
2022/03/10 08:06:46;;;;;;;43.80;18.17;;;;;;;;;;5056002;28;20043;-60
2022/03/10 08:09:12;;;;;;;38.22;16.00;;;;;;;;;;5062824;28;20063;-60
2022/03/10 08:11:39;;;;;;;41.88;16.90;;;;;;;;;;5058281;28;20028;-60
2022/03/10 08:14:05;;;;;;;38.40;15.13;;;;;;;;;;5063155;28;20036;-61
2022/03/10 08:16:31;;;;;;;37.72;14.85;;;;;;;;;;5065184;28;20521;-60
2022/03/10 08:18:57;;;;;;;36.00;15.65;;;;;;;;;;5057728;28;20048;-60
2022/03/10 08:21:23;;;;;;;46.50;16.67;;;;;;;;;;5060515;28;20047;-61
2022/03/10 08:23:48;;;;;;;41.50;16.73;;;;;;;;;;5061916;28;20028;-59
2022/03/10 08:26:15;;;;;;;38.88;14.93;;;;;;;;;;5056015;28;20266;-60
2022/03/10 08:28:40;;;;;;;38.42;15.60;;;;;;;;;;5060647;28;20404;-61
2022/03/10 08:31:06;;;;;;;33.58;14.52;;;;;;;;;;5062357;28;20399;-61
2022/03/10 08:33:31;;;;;;;32.45;14.70;;;;;;;;;;5057169;28;20507;-61
2022/03/10 08:35:57;;;;;;;37.28;14.75;;;;;;;;;;5063876;28;20539;-61
2022/03/10 08:38:23;;;;;;;37.42;15.38;;;;;;;;;;5062895;28;20503;-60
2022/03/10 08:40:49;;;;;;;36.03;13.73;;;;;;;;;;5059172;28;20031;-61
2022/03/10 08:43:15;;;;;;;39.28;15.40;;;;;;;;;;5065963;28;20038;-61
2022/03/10 08:45:41;;;;;;;39.88;15.10;;;;;;;;;;5062957;28;20476;-61
2022/03/10 08:48:06;;;;;;;36.42;15.13;;;;;;;;;;5066478;28;20058;-61
2022/03/10 08:50:32;;;;;;;40.50;15.70;;;;;;;;;;5063528;28;20037;-61
2022/03/10 08:52:57;;;;;;;37.63;15.93;;;;;;;;;;5064741;28;20470;-61
2022/03/10 08:55:23;;;;;;;36.15;14.85;;;;;;;;;;5058846;28;20033;-61
2022/03/10 08:57:49;;;;;;;33.70;14.30;;;;;;;;;;5058735;28;20037;-60
2022/03/10 09:00:18;;;;;;;37.85;16.58;;;;;;;;;;5055578;28;20029;-61
2022/03/10 09:02:44;;;;;;;39.50;15.77;;;;;;;;;;5052872;28;20518;-61
2022/03/10 09:05:10;;;;;;;32.58;15.65;;;;;;;;;;5060899;28;20119;-60
2022/03/10 09:07:36;;;;;;;40.08;16.88;;;;;;;;;;5057806;28;20028;-60
2022/03/10 09:10:05;;;;;;;38.10;16.60;;;;;;;;;;5054854;28;20189;-61
2022/03/10 09:12:31;;;;;;;38.22;15.75;;;;;;;;;;5065410;28;20476;-61
2022/03/10 09:14:57;;;;;;;36.72;15.82;;;;;;;;;;5061697;28;20024;-61
2022/03/10 09:17:22;;;;;;;33.35;15.45;;;;;;;;;;5060320;28;20110;-62
2022/03/10 09:19:49;;;;;;;33.85;15.60;;;;;;;;;;5052441;28;20083;-61
2022/03/10 09:22:15;;;;;;;33.35;15.27;;;;;;;;;;5054052;28;20396;-61
2022/03/10 09:24:40;;;;;;;34.45;16.25;;;;;;;;;;5055042;28;20078;-61
2022/03/10 09:27:07;;;;;;;37.75;18.08;;;;;;;;;;5058388;28;20391;-60
2022/03/10 09:29:32;;;;;;;36.92;17.48;;;;;;;;;;5061935;28;20502;-60
2022/03/10 09:31:58;;;;;;;41.67;18.33;;;;;;;;;;5068142;28;20040;-61
2022/03/10 09:34:23;;;;;;;35.28;17.27;;;;;;;;;;5064521;28;20098;-61
2022/03/10 09:36:49;;;;;;;35.35;16.67;;;;;;;;;;5064947;28;20063;-61
2022/03/10 09:39:17;;;;;;;29.95;14.60;;;;;;;;;;5062549;28;20020;-61
2022/03/10 09:41:44;;;;;;;13.77;7.50;;;;;;;;;;5060647;28;20025;-61
2022/03/10 09:44:21;;;;;;;18.27;9.32;;;;;;;;;;5065831;28;20488;-62
2022/03/10 09:46:50;;;;;;;9.50;4.22;;;;;;;;;;5061286;28;20032;-60
2022/03/10 09:49:20;;;;;;;6.63;3.60;;;;;;;;;;5057917;28;20016;-61
2022/03/10 09:51:48;;;;;;;9.55;4.55;;;;;;;;;;5060170;28;20092;-61
2022/03/10 09:54:14;;;;;;;5.40;3.10;;;;;;;;;;5065309;28;20093;-61
2022/03/10 09:56:42;;;;;;;5.07;3.58;;;;;;;;;;5060641;28;20029;-62
2022/03/10 09:59:09;;;;;;;6.68;3.10;;;;;;;;;;5055580;28;20024;-62
2022/03/10 10:01:34;;;;;;;6.82;4.28;;;;;;;;;;5060310;28;20452;-61
2022/03/10 10:04:00;;;;;;;5.63;3.47;;;;;;;;;;5066817;28;20040;-62
2022/03/10 10:06:25;;;;;;;6.30;3.75;;;;;;;;;;5062476;28;20086;-62
2022/03/10 10:08:57;;;;;;;4.95;3.05;;;;;;;;;;5065552;28;20024;-60
2022/03/10 10:11:40;;;;;;;6.57;3.65;;;;;;;;;;5062230;28;20519;-62
2022/03/10 10:14:06;;;;;;;5.95;3.33;;;;;;;;;;5060794;28;20381;-62
2022/03/10 10:16:31;;;;;;;6.35;3.65;;;;;;;;;;5064593;28;20032;-61
2022/03/10 10:18:58;;;;;;;6.32;3.67;;;;;;;;;;5058376;28;20037;-61
2022/03/10 10:21:25;;;;;;;6.97;3.40;;;;;;;;;;5056036;28;20388;-60
2022/03/10 10:23:53;;;;;;;6.10;3.70;;;;;;;;;;5056216;28;20036;-61
2022/03/10 10:26:20;;;;;;;6.63;3.58;;;;;;;;;;5066541;28;20020;-62
2022/03/10 10:28:47;;;;;;;6.22;3.45;;;;;;;;;;5057884;28;20047;-62
2022/03/10 10:31:13;;;;;;;6.20;3.88;;;;;;;;;;5059248;28;20028;-61
2022/03/10 10:33:54;;;;;;;7.82;3.90;;;;;;;;;;5061710;28;20525;-61
2022/03/10 10:36:26;;;;;;;5.20;3.35;;;;;;;;;;5059670;28;20020;-63
2022/03/10 10:38:54;;;;;;;7.05;4.43;;;;;;;;;;5062453;28;20025;-61
2022/03/10 10:41:25;;;;;;;7.03;4.40;;;;;;;;;;5065917;28;20476;-61
2022/03/10 10:43:57;;;;;;;7.20;4.60;;;;;;;;;;5062780;28;20438;-62
2022/03/10 10:46:29;;;;;;;7.00;4.55;;;;;;;;;;5054764;28;20067;-62
2022/03/10 10:48:56;;;;;;;8.40;4.82;;;;;;;;;;5053231;28;20052;-63
2022/03/10 10:51:33;;;;;;;8.80;4.80;;;;;;;;;;5062540;28;20115;-62
2022/03/10 10:54:09;;;;;;;6.70;4.82;;;;;;;;;;5067527;28;20123;-61
2022/03/10 10:56:44;;;;;;;7.28;4.53;;;;;;;;;;5066532;28;20055;-62
2022/03/10 10:59:37;;;;;;;7.18;3.92;;;;;;;;;;5061882;28;20384;-62
2022/03/10 11:02:17;;;;;;;8.38;4.88;;;;;;;;;;5059767;28;20496;-63
2022/03/10 11:04:46;;;;;;;8.25;4.68;;;;;;;;;;5057522;28;20086;-63
2022/03/10 11:07:13;;;;;;;9.75;4.45;;;;;;;;;;5056115;28;20429;-64
2022/03/10 11:09:41;;;;;;;7.20;4.60;;;;;;;;;;5059015;28;20032;-62
2022/03/10 11:12:13;;;;;;;9.15;4.70;;;;;;;;;;5062374;28;20086;-62
2022/03/10 11:14:39;;;;;;;9.10;3.58;;;;;;;;;;5057260;28;20047;-62
2022/03/10 11:17:06;;;;;;;7.15;3.92;;;;;;;;;;5054952;28;20029;-62
2022/03/10 11:19:34;;;;;;;7.22;3.70;;;;;;;;;;5057931;28;20036;-64
2022/03/10 11:22:10;;;;;;;5.07;3.67;;;;;;;;;;5049766;28;20025;-62
2022/03/10 11:24:39;;;;;;;5.55;4.20;;;;;;;;;;5065297;28;20036;-63
2022/03/10 11:27:13;;;;;;;9.55;4.15;;;;;;;;;;5060396;28;20031;-62
2022/03/10 11:29:39;;;;;;;6.05;3.70;;;;;;;;;;5053457;28;20033;-63
2022/03/10 11:32:14;;;;;;;12.63;4.10;;;;;;;;;;5066437;28;20029;-62
2022/03/10 11:34:54;;;;;;;6.40;3.47;;;;;;;;;;5064670;28;20082;-62
2022/03/10 11:37:41;;;;;;;5.95;3.25;;;;;;;;;;5067669;28;20031;-63
2022/03/10 11:40:16;;;;;;;6.88;4.13;;;;;;;;;;5061068;28;20088;-62
2022/03/10 11:42:42;;;;;;;5.60;3.63;;;;;;;;;;5066157;28;20056;-61
2022/03/10 11:45:09;;;;;;;7.03;4.22;;;;;;;;;;5063678;28;20492;-63
2022/03/10 11:47:35;;;;;;;6.90;4.55;;;;;;;;;;5056275;28;20112;-62
2022/03/10 11:50:22;;;;;;;13.63;7.03;;;;;;;;;;5064541;28;20464;-63
2022/03/10 11:52:55;;;;;;;10.32;5.70;;;;;;;;;;5064120;28;20407;-66
2022/03/10 11:55:21;;;;;;;7.90;4.80;;;;;;;;;;5065912;28;20025;-62
2022/03/10 11:57:52;;;;;;;12.02;4.97;;;;;;;;;;5059597;28;20353;-62
2022/03/10 12:00:18;;;;;;;7.85;3.58;;;;;;;;;;5064450;28;20035;-62
2022/03/10 12:02:44;;;;;;;8.13;3.60;;;;;;;;;;5064703;28;20024;-63
2022/03/10 12:05:11;;;;;;;5.95;3.30;;;;;;;;;;5062412;28;20452;-63
2022/03/10 12:07:41;;;;;;;6.22;3.50;;;;;;;;;;5063793;28;20529;-62
2022/03/10 12:10:08;;;;;;;5.53;3.50;;;;;;;;;;5063626;28;20031;-63
2022/03/10 12:12:43;;;;;;;9.35;4.50;;;;;;;;;;5061317;28;20506;-64
2022/03/10 12:15:35;;;;;;;10.02;4.22;;;;;;;;;;5067105;28;20025;-62
2022/03/10 12:18:14;;;;;;;5.85;3.45;;;;;;;;;;5060297;28;20061;-63
2022/03/10 12:20:42;;;;;;;6.25;3.33;;;;;;;;;;5059168;28;20531;-61
2022/03/10 12:23:10;;;;;;;9.60;4.38;;;;;;;;;;5062689;28;20460;-63
2022/03/10 12:25:41;;;;;;;5.38;3.60;;;;;;;;;;5064173;28;20486;-64
2022/03/10 12:28:07;;;;;;;7.18;4.70;;;;;;;;;;5067088;28;20067;-62
2022/03/10 12:30:40;;;;;;;7.10;4.80;;;;;;;;;;5062032;28;20033;-62
2022/03/10 12:33:05;;;;;;;6.95;4.50;;;;;;;;;;5067242;28;20047;-64
2022/03/10 12:35:35;;;;;;;7.38;4.32;;;;;;;;;;5059338;28;20028;-62
2022/03/10 12:38:00;;;;;;;7.70;4.63;;;;;;;;;;5067251;28;20391;-62
2022/03/10 12:40:28;;;;;;;8.93;5.65;;;;;;;;;;5066478;28;20029;-61
2022/03/10 12:43:02;;;;;;;10.32;4.78;;;;;;;;;;5066852;28;20043;-63
2022/03/10 12:45:29;;;;;;;12.18;5.55;;;;;;;;;;5064398;28;20111;-62
2022/03/10 12:48:12;;;;;;;8.98;5.55;;;;;;;;;;5066842;28;20024;-62
2022/03/10 12:50:38;;;;;;;10.55;6.22;;;;;;;;;;5067112;28;20505;-62
2022/03/10 12:53:15;;;;;;;11.95;5.90;;;;;;;;;;5066677;28;20028;-64
2022/03/10 12:55:53;;;;;;;12.13;5.57;;;;;;;;;;5069239;28;20039;-62
2022/03/10 12:58:30;;;;;;;9.15;5.68;;;;;;;;;;5060914;28;20539;-62
2022/03/10 13:01:07;;;;;;;14.38;7.25;;;;;;;;;;5061722;28;20140;-64
2022/03/10 13:03:49;;;;;;;11.70;5.95;;;;;;;;;;5062136;28;20028;-63
2022/03/10 13:06:16;;;;;;;11.60;5.88;;;;;;;;;;5055234;28;20490;-62
2022/03/10 13:08:48;;;;;;;12.75;5.93;;;;;;;;;;5056234;28;20040;-62
2022/03/10 13:11:22;;;;;;;10.43;6.30;;;;;;;;;;5058086;28;20059;-64
2022/03/10 13:14:07;;;;;;;19.15;7.07;;;;;;;;;;5059830;28;20032;-62
2022/03/10 13:16:50;;;;;;;11.98;6.68;;;;;;;;;;5052567;28;20036;-64
2022/03/10 13:19:29;;;;;;;11.45;7.35;;;;;;;;;;5057097;28;20122;-62
2022/03/10 13:22:03;;;;;;;10.90;5.85;;;;;;;;;;5065423;28;20021;-62
2022/03/10 13:24:41;;;;;;;10.18;6.22;;;;;;;;;;5063733;28;20036;-64
2022/03/10 13:27:14;;;;;;;10.32;7.18;;;;;;;;;;5067213;28;20070;-63
2022/03/10 13:29:44;;;;;;;12.65;7.60;;;;;;;;;;5064273;28;20143;-62
2022/03/10 13:32:11;;;;;;;13.60;8.50;;;;;;;;;;5060374;28;20111;-63
2022/03/10 13:34:37;;;;;;;15.05;8.93;;;;;;;;;;5066429;28;20028;-63
2022/03/10 13:37:03;;;;;;;13.57;9.20;;;;;;;;;;5065001;28;20051;-63
2022/03/10 13:39:30;;;;;;;13.75;9.13;;;;;;;;;;5065019;28;20403;-62
2022/03/10 13:41:56;;;;;;;14.27;9.45;;;;;;;;;;5064394;28;20067;-64
2022/03/10 13:44:21;;;;;;;17.65;9.10;;;;;;;;;;5062159;28;20021;-63
2022/03/10 13:46:47;;;;;;;14.50;9.25;;;;;;;;;;5062869;28;20165;-63
2022/03/10 13:49:23;;;;;;;14.55;9.50;;;;;;;;;;5064441;28;20047;-63
2022/03/10 13:51:50;;;;;;;12.73;9.15;;;;;;;;;;5063992;28;20033;-62
2022/03/10 13:54:17;;;;;;;13.35;8.85;;;;;;;;;;5064090;28;20048;-62
2022/03/10 13:56:43;;;;;;;18.38;9.30;;;;;;;;;;5063577;28;20055;-63
2022/03/10 13:59:11;;;;;;;13.93;9.43;;;;;;;;;;5061438;28;20070;-63
2022/03/10 14:01:44;;;;;;;17.63;10.18;;;;;;;;;;5057730;28;20176;-63
2022/03/10 14:04:10;;;;;;;16.73;9.82;;;;;;;;;;5060589;28;20059;-65
2022/03/10 14:06:46;;;;;;;25.27;13.15;;;;;;;;;;5059971;28;20032;-63
2022/03/10 14:09:20;;;;;;;20.23;12.52;;;;;;;;;;5053195;28;20042;-63
2022/03/10 14:11:47;;;;;;;14.02;9.27;;;;;;;;;;5064184;28;20392;-62
2022/03/10 14:14:13;;;;;;;18.02;10.38;;;;;;;;;;5060776;28;20043;-63
2022/03/10 14:16:52;;;;;;;15.07;9.93;;;;;;;;;;5056853;28;20029;-63
2022/03/10 14:19:33;;;;;;;15.25;10.10;;;;;;;;;;5057637;28;20115;-63
2022/03/10 14:22:00;;;;;;;15.93;9.57;;;;;;;;;;5056775;28;20495;-63
2022/03/10 14:24:35;;;;;;;15.25;9.13;;;;;;;;;;5063490;28;20104;-64
2022/03/10 14:27:11;;;;;;;18.25;9.68;;;;;;;;;;5056776;28;20557;-64
2022/03/10 14:29:42;;;;;;;13.85;9.23;;;;;;;;;;5066986;28;20089;-62
2022/03/10 14:32:09;;;;;;;18.90;9.43;;;;;;;;;;5064189;28;20024;-63
2022/03/10 14:34:35;;;;;;;13.95;8.93;;;;;;;;;;5056206;28;20472;-63
2022/03/10 14:37:01;;;;;;;16.13;9.75;;;;;;;;;;5064927;28;20459;-63